Time;durP1;ratioP1;P1;durP2;ratioP2;P2;SDS_P1;SDS_P2;PMS_P1;PMS_P2;Temp;Humidity;BMP_temperature;BMP_pressure;BME280_temperature;BME280_humidity;BME280_pressure;Samples;Min_cycle;Max_cycle;Signal;HPM_P1;HPM_P2
2021/12/27 00:01:31;;;;;;;9.93;4.43;;;4.30;99.90;;;;;;4994365;28;20623;-68
2021/12/27 00:03:58;;;;;;;9.80;6.50;;;4.20;99.90;;;;;;4968936;28;21287;-68
2021/12/27 00:06:27;;;;;;;9.60;5.63;;;4.20;99.90;;;;;;4962065;28;20439;-67
2021/12/27 00:08:54;;;;;;;7.00;3.87;;;4.20;99.90;;;;;;4986656;28;20801;-68
2021/12/27 00:11:21;;;;;;;8.87;4.80;;;4.20;99.90;;;;;;4967323;28;22502;-68
2021/12/27 00:13:48;;;;;;;8.80;5.23;;;4.30;99.90;;;;;;4979685;28;20956;-65
2021/12/27 00:16:15;;;;;;;6.10;4.50;;;4.30;99.90;;;;;;4978825;28;20951;-68
2021/12/27 00:18:42;;;;;;;8.57;4.60;;;4.40;99.90;;;;;;4979995;28;20436;-68
2021/12/27 00:21:10;;;;;;;4.67;4.27;;;4.40;99.90;;;;;;4954684;28;20455;-68
2021/12/27 00:23:38;;;;;;;12.87;6.63;;;4.30;99.90;;;;;;4978638;28;20837;-69
2021/12/27 00:26:05;;;;;;;6.50;5.60;;;4.20;99.90;;;;;;4974174;28;20535;-69
2021/12/27 00:28:33;;;;;;;8.90;4.60;;;4.10;99.90;;;;;;4990401;28;20435;-69
2021/12/27 00:31:00;;;;;;;8.43;5.80;;;4.10;99.90;;;;;;4979611;28;20458;-68
2021/12/27 00:33:28;;;;;;;6.50;4.30;;;4.20;99.90;;;;;;4984199;28;20923;-70
2021/12/27 00:35:55;;;;;;;9.17;5.03;;;4.20;99.90;;;;;;4978383;28;20443;-68
2021/12/27 00:38:22;;;;;;;5.90;4.67;;;4.20;99.90;;;;;;4982161;28;22150;-68
2021/12/27 00:40:51;;;;;;;6.60;4.30;;;4.20;99.90;;;;;;4979957;28;20610;-69
2021/12/27 00:43:19;;;;;;;10.13;5.37;;;4.20;99.90;;;;;;4977057;28;21060;-69
2021/12/27 00:45:46;;;;;;;6.17;5.27;;;4.20;99.90;;;;;;4979914;28;20988;-67
2021/12/27 00:48:15;;;;;;;11.53;5.30;;;4.20;99.90;;;;;;4979155;28;21878;-68
2021/12/27 00:50:42;;;;;;;7.87;4.83;;;4.20;99.90;;;;;;4978828;28;20427;-67
2021/12/27 00:53:09;;;;;;;12.20;5.23;;;4.30;99.90;;;;;;4983750;28;21062;-68
2021/12/27 00:55:36;;;;;;;9.43;7.20;;;4.30;99.90;;;;;;4971399;28;20461;-68
2021/12/27 00:58:04;;;;;;;9.97;5.57;;;4.40;99.90;;;;;;4985235;28;20912;-68
2021/12/27 01:00:32;;;;;;;16.60;5.80;;;4.30;99.90;;;;;;4982802;28;20938;-67
2021/12/27 01:02:59;;;;;;;6.80;5.20;;;4.30;99.90;;;;;;4980682;28;20463;-69
2021/12/27 01:05:27;;;;;;;6.93;4.50;;;4.20;99.90;;;;;;4985408;28;20460;-68
2021/12/27 01:07:55;;;;;;;7.07;4.40;;;4.20;99.90;;;;;;4988195;28;20547;-67
2021/12/27 01:10:49;;;;;;;4.93;4.40;;;4.20;99.90;;;;;;4974839;28;20492;-67
2021/12/27 01:13:22;;;;;;;8.10;5.23;;;4.10;99.90;;;;;;4981978;28;20544;-69
2021/12/27 01:16:10;;;;;;;16.53;4.37;;;4.00;99.90;;;;;;4990939;28;20665;-68
2021/12/27 01:18:39;;;;;;;8.90;5.60;;;3.90;99.90;;;;;;4958147;28;20842;-67
2021/12/27 01:21:06;;;;;;;11.80;4.67;;;4.00;99.90;;;;;;4980047;28;20983;-68
2021/12/27 01:23:34;;;;;;;9.20;5.67;;;4.00;99.90;;;;;;4981338;28;20607;-68
2021/12/27 01:26:00;;;;;;;7.90;5.20;;;4.00;99.90;;;;;;4986150;28;20887;-68
2021/12/27 01:28:29;;;;;;;9.77;5.30;;;3.90;99.90;;;;;;4968524;28;20472;-66
2021/12/27 01:30:57;;;;;;;8.13;4.30;;;3.90;99.90;;;;;;4968465;28;21126;-67
2021/12/27 01:33:25;;;;;;;5.57;3.93;;;4.00;99.90;;;;;;4982470;28;20468;-68
2021/12/27 01:35:53;;;;;;;7.47;4.93;;;4.00;99.90;;;;;;4974168;28;20791;-67
2021/12/27 01:38:21;;;;;;;7.70;4.33;;;4.00;99.90;;;;;;4972493;28;20509;-67
2021/12/27 01:40:51;;;;;;;9.03;4.20;;;4.00;99.90;;;;;;4964385;28;20544;-67
2021/12/27 01:43:21;;;;;;;9.60;4.97;;;4.00;99.90;;;;;;4983738;28;20479;-66
2021/12/27 01:45:52;;;;;;;7.80;4.03;;;4.10;99.90;;;;;;4950350;28;20512;-68
2021/12/27 01:48:23;;;;;;;7.93;6.07;;;4.10;99.90;;;;;;4950979;28;20706;-67
2021/12/27 01:50:51;;;;;;;10.57;5.67;;;4.10;99.90;;;;;;4951023;28;20459;-67
2021/12/27 01:53:19;;;;;;;7.43;5.37;;;4.00;99.90;;;;;;4947060;28;20952;-67
2021/12/27 01:55:47;;;;;;;5.57;4.60;;;4.10;99.90;;;;;;4966718;28;20460;-69
2021/12/27 01:58:14;;;;;;;11.27;5.10;;;4.20;99.90;;;;;;4960823;28;21391;-67
2021/12/27 02:00:45;;;;;;;7.30;4.60;;;4.20;99.90;;;;;;4967349;28;20517;-67
2021/12/27 02:03:14;;;;;;;4.90;4.40;;;4.20;99.90;;;;;;4991751;28;20427;-66
2021/12/27 02:05:42;;;;;;;10.60;3.67;;;4.30;99.90;;;;;;4981851;28;20565;-68
2021/12/27 02:08:09;;;;;;;10.93;6.33;;;4.30;99.90;;;;;;4979078;28;20472;-67
2021/12/27 02:10:36;;;;;;;7.60;4.63;;;4.50;99.90;;;;;;4977196;28;20608;-68
2021/12/27 02:13:03;;;;;;;13.43;5.67;;;4.50;99.90;;;;;;4985896;28;20472;-68
2021/12/27 02:15:31;;;;;;;5.70;3.90;;;4.40;99.90;;;;;;4971294;28;20452;-68
2021/12/27 02:17:58;;;;;;;10.50;6.63;;;4.40;99.90;;;;;;4972190;28;20462;-68
2021/12/27 02:20:28;;;;;;;5.00;3.63;;;4.40;99.90;;;;;;4975118;28;20631;-67
2021/12/27 02:23:00;;;;;;;10.70;5.40;;;4.40;99.90;;;;;;4979299;28;20479;-67
2021/12/27 02:25:27;;;;;;;8.70;4.30;;;4.40;99.90;;;;;;4971426;28;20510;-68
2021/12/27 02:27:56;;;;;;;10.53;5.43;;;4.30;99.90;;;;;;4977559;28;20996;-67
2021/12/27 02:30:23;;;;;;;10.67;5.20;;;4.40;99.90;;;;;;4988566;28;20466;-67
2021/12/27 02:32:52;;;;;;;7.67;4.63;;;4.50;99.90;;;;;;4970562;28;20701;-68
2021/12/27 02:35:23;;;;;;;5.60;4.53;;;4.70;99.90;;;;;;4977857;28;20580;-67
2021/12/27 02:37:52;;;;;;;10.53;4.77;;;4.70;99.90;;;;;;4985197;28;22345;-66
2021/12/27 02:40:20;;;;;;;5.90;4.40;;;4.60;99.90;;;;;;4982149;28;20456;-68
2021/12/27 02:42:58;;;;;;;8.50;5.40;;;4.60;99.90;;;;;;4978016;28;20494;-67
2021/12/27 02:45:26;;;;;;;8.47;4.43;;;4.60;99.90;;;;;;4985358;28;21183;-67
2021/12/27 02:47:54;;;;;;;7.00;4.73;;;4.60;99.90;;;;;;4971813;28;20465;-67
2021/12/27 02:50:22;;;;;;;7.03;5.30;;;4.60;99.90;;;;;;4993451;28;20538;-69
2021/12/27 02:52:49;;;;;;;7.40;3.70;;;4.60;99.90;;;;;;4971991;28;21425;-67
2021/12/27 02:55:18;;;;;;;5.50;3.97;;;4.60;99.90;;;;;;4982170;28;20495;-66
2021/12/27 02:57:47;;;;;;;12.07;4.43;;;4.70;99.90;;;;;;4986841;28;21145;-67
2021/12/27 03:00:17;;;;;;;9.10;5.00;;;4.60;99.90;;;;;;4979497;28;22927;-66
2021/12/27 03:02:46;;;;;;;6.60;3.60;;;4.70;99.90;;;;;;4969172;28;20495;-66
2021/12/27 03:05:16;;;;;;;8.00;4.00;;;4.80;99.90;;;;;;4974053;28;21476;-67
2021/12/27 03:07:44;;;;;;;11.40;6.63;;;4.80;99.90;;;;;;4988944;28;21245;-68
2021/12/27 03:10:13;;;;;;;4.73;3.10;;;4.70;99.90;;;;;;4984324;28;20435;-67
2021/12/27 03:12:43;;;;;;;10.50;5.20;;;4.80;99.90;;;;;;4965385;28;20466;-67
2021/12/27 03:15:12;;;;;;;4.87;3.83;;;4.80;99.90;;;;;;4967288;28;20745;-67
2021/12/27 03:17:40;;;;;;;13.43;3.97;;;4.70;99.90;;;;;;4976801;28;20528;-66
2021/12/27 03:20:09;;;;;;;7.03;5.20;;;4.70;99.90;;;;;;4987595;28;21974;-67
2021/12/27 03:22:37;;;;;;;7.90;3.53;;;4.80;99.90;;;;;;4976512;28;20826;-67
2021/12/27 03:25:06;;;;;;;9.70;4.57;;;4.90;99.90;;;;;;4977178;28;20452;-68
2021/12/27 03:27:33;;;;;;;6.00;4.23;;;4.90;99.90;;;;;;4982456;28;20758;-67
2021/12/27 03:30:02;;;;;;;6.53;3.70;;;4.90;99.90;;;;;;4979135;28;20432;-68
2021/12/27 03:32:31;;;;;;;4.77;4.03;;;4.90;99.90;;;;;;4983205;28;20491;-66
2021/12/27 03:35:07;;;;;;;11.03;4.47;;;4.80;99.90;;;;;;4975333;28;22168;-67
2021/12/27 03:37:35;;;;;;;10.10;3.53;;;4.90;99.90;;;;;;4965367;28;20439;-68
2021/12/27 03:40:02;;;;;;;7.70;4.60;;;4.90;99.90;;;;;;4982199;28;20469;-67
2021/12/27 03:42:29;;;;;;;7.47;4.60;;;4.90;99.90;;;;;;4990221;28;20461;-67
2021/12/27 03:44:56;;;;;;;6.03;3.57;;;5.10;99.90;;;;;;4965170;28;20530;-67
2021/12/27 03:47:24;;;;;;;3.83;2.57;;;5.20;99.90;;;;;;4982955;28;20469;-66
2021/12/27 03:49:51;;;;;;;7.93;3.60;;;5.20;99.90;;;;;;4978746;28;20660;-68
2021/12/27 03:52:18;;;;;;;11.70;4.47;;;5.10;99.90;;;;;;4981864;28;20439;-67
2021/12/27 03:54:45;;;;;;;9.73;4.00;;;5.10;99.90;;;;;;4976716;28;20570;-67
2021/12/27 03:57:14;;;;;;;8.87;4.60;;;5.00;99.90;;;;;;4971243;28;21363;-66
2021/12/27 03:59:53;;;;;;;7.93;5.00;;;5.00;99.90;;;;;;4974478;28;20802;-67
2021/12/27 04:02:20;;;;;;;5.97;4.50;;;4.90;99.90;;;;;;4956576;28;20547;-68
2021/12/27 04:04:49;;;;;;;5.37;3.83;;;4.90;99.90;;;;;;4958044;28;20907;-67
2021/12/27 04:07:18;;;;;;;5.13;4.47;;;5.00;99.90;;;;;;4970805;28;22677;-66
2021/12/27 04:09:45;;;;;;;9.30;4.50;;;5.00;99.90;;;;;;4970041;28;20479;-67
2021/12/27 04:12:12;;;;;;;6.13;5.27;;;5.00;99.90;;;;;;4966904;28;21125;-67
2021/12/27 04:14:39;;;;;;;6.40;5.07;;;5.00;99.90;;;;;;4992068;28;20488;-67
2021/12/27 04:17:06;;;;;;;9.63;5.27;;;5.00;99.90;;;;;;4970119;28;20477;-68
2021/12/27 04:19:33;;;;;;;4.93;4.13;;;4.90;99.90;;;;;;4982863;28;20574;-68
2021/12/27 04:22:02;;;;;;;8.17;5.47;;;5.00;99.90;;;;;;4980085;28;20854;-67
2021/12/27 04:24:29;;;;;;;4.80;2.83;;;5.10;99.90;;;;;;4967815;28;20520;-68
2021/12/27 04:26:56;;;;;;;6.90;4.27;;;5.10;99.90;;;;;;4973695;28;21009;-68
2021/12/27 04:29:23;;;;;;;6.53;4.47;;;5.10;99.90;;;;;;4980882;28;20431;-68
2021/12/27 04:31:50;;;;;;;8.10;4.40;;;5.10;99.90;;;;;;4976423;28;20568;-68
2021/12/27 04:34:17;;;;;;;5.37;3.47;;;5.10;99.90;;;;;;4971844;28;21876;-67
2021/12/27 04:36:46;;;;;;;7.73;3.97;;;5.10;99.90;;;;;;4971787;28;20475;-69
2021/12/27 04:39:14;;;;;;;6.00;3.57;;;5.10;99.90;;;;;;4974650;28;21540;-68
2021/12/27 04:41:42;;;;;;;10.77;4.33;;;5.20;99.90;;;;;;4966261;28;20686;-69
2021/12/27 04:44:09;;;;;;;6.23;3.97;;;5.20;99.90;;;;;;4975896;28;20485;-69
2021/12/27 04:46:36;;;;;;;6.63;3.73;;;5.10;99.90;;;;;;4969176;28;20894;-67
2021/12/27 04:49:06;;;;;;;4.50;3.90;;;5.10;99.90;;;;;;4978580;28;20535;-68
2021/12/27 04:51:34;;;;;;;7.03;3.77;;;4.90;99.90;;;;;;4988806;28;20452;-67
2021/12/27 04:54:01;;;;;;;5.53;2.97;;;4.90;99.90;;;;;;4983732;28;20547;-68
2021/12/27 04:56:29;;;;;;;9.10;4.27;;;5.10;99.90;;;;;;4986462;28;21007;-67
2021/12/27 04:58:56;;;;;;;8.33;3.97;;;5.10;99.90;;;;;;4973866;28;20833;-67
2021/12/27 05:01:23;;;;;;;7.97;4.40;;;5.20;99.90;;;;;;4977737;28;20481;-68
2021/12/27 05:03:50;;;;;;;3.93;3.53;;;5.20;99.90;;;;;;4976694;28;20669;-67
2021/12/27 05:06:18;;;;;;;9.90;4.60;;;5.20;99.90;;;;;;4976201;28;20427;-66
2021/12/27 05:08:45;;;;;;;10.37;5.57;;;5.30;99.90;;;;;;4972289;28;21404;-67
2021/12/27 05:11:12;;;;;;;4.30;3.60;;;5.20;99.90;;;;;;4973071;28;20435;-66
2021/12/27 05:13:40;;;;;;;10.70;4.33;;;5.20;99.90;;;;;;4983018;28;20654;-69
2021/12/27 05:16:08;;;;;;;4.67;3.87;;;5.20;99.90;;;;;;4965606;28;20524;-69
2021/12/27 05:18:35;;;;;;;8.03;3.77;;;5.30;99.90;;;;;;4983443;28;20457;-69
2021/12/27 05:21:02;;;;;;;6.80;4.33;;;5.20;99.90;;;;;;4977734;28;20439;-70
2021/12/27 05:23:30;;;;;;;7.00;3.33;;;5.10;99.90;;;;;;4962241;28;20552;-69
2021/12/27 05:25:58;;;;;;;8.87;5.50;;;5.00;99.90;;;;;;4974707;28;20483;-66
2021/12/27 05:28:25;;;;;;;7.43;4.60;;;5.10;99.90;;;;;;4972019;28;20697;-69
2021/12/27 05:30:53;;;;;;;5.93;4.17;;;5.00;99.90;;;;;;4991335;28;20852;-69
2021/12/27 05:33:23;;;;;;;4.23;3.57;;;5.00;99.90;;;;;;4976015;28;20494;-69
2021/12/27 05:35:50;;;;;;;5.87;4.03;;;5.00;99.90;;;;;;4991823;28;20438;-69
2021/12/27 05:38:20;;;;;;;5.10;4.70;;;5.10;99.90;;;;;;5006061;28;20465;-67
2021/12/27 05:40:47;;;;;;;8.27;4.07;;;5.10;99.90;;;;;;4997623;28;21157;-67
2021/12/27 05:43:14;;;;;;;10.50;4.27;;;5.10;99.90;;;;;;5001060;28;20463;-68
2021/12/27 05:45:44;;;;;;;7.43;4.43;;;5.20;99.90;;;;;;4964034;28;20919;-67
2021/12/27 05:48:12;;;;;;;4.33;3.57;;;5.10;99.90;;;;;;4966700;28;20556;-67
2021/12/27 05:50:40;;;;;;;8.50;3.87;;;5.00;99.90;;;;;;4973812;28;20456;-67
2021/12/27 05:53:10;;;;;;;4.87;4.47;;;5.10;99.90;;;;;;4969287;28;20438;-68
2021/12/27 05:55:37;;;;;;;5.00;2.67;;;5.20;99.90;;;;;;4984206;28;20548;-67
2021/12/27 05:58:05;;;;;;;7.50;3.20;;;5.20;99.90;;;;;;4987929;28;20960;-67
2021/12/27 06:00:33;;;;;;;6.20;4.13;;;5.20;99.90;;;;;;4969244;28;20437;-67
2021/12/27 06:03:01;;;;;;;6.63;4.67;;;5.10;99.90;;;;;;4966954;28;21323;-67
2021/12/27 06:05:30;;;;;;;4.57;3.53;;;5.10;99.90;;;;;;4967673;28;20475;-68
2021/12/27 06:07:57;;;;;;;8.70;4.80;;;5.10;99.90;;;;;;4985337;28;20518;-68
2021/12/27 06:10:25;;;;;;;7.57;3.57;;;5.10;99.90;;;;;;4981809;28;20763;-68
2021/12/27 06:12:52;;;;;;;6.37;3.60;;;5.10;99.90;;;;;;4966175;28;21104;-68
2021/12/27 06:15:19;;;;;;;6.13;3.10;;;5.10;99.90;;;;;;4989428;28;20491;-68
2021/12/27 06:17:46;;;;;;;7.73;3.83;;;5.10;99.90;;;;;;4984134;28;20595;-67
2021/12/27 06:20:16;;;;;;;4.97;3.77;;;5.20;99.90;;;;;;4973033;28;20669;-67
2021/12/27 06:22:49;;;;;;;5.47;3.10;;;5.30;99.90;;;;;;4973188;28;20671;-67
2021/12/27 06:25:16;;;;;;;6.40;4.10;;;5.30;99.90;;;;;;4971195;28;20608;-68
2021/12/27 06:27:44;;;;;;;4.33;3.50;;;5.20;99.90;;;;;;4990045;28;20648;-68
2021/12/27 06:30:14;;;;;;;3.47;3.07;;;5.20;99.90;;;;;;4972475;28;21280;-68
2021/12/27 06:32:41;;;;;;;10.83;4.57;;;5.20;99.90;;;;;;4982737;28;20467;-68
2021/12/27 06:35:11;;;;;;;4.87;3.40;;;5.10;99.90;;;;;;4973121;28;21770;-68
2021/12/27 06:37:38;;;;;;;4.77;3.57;;;5.10;99.90;;;;;;4975064;28;20467;-67
2021/12/27 06:40:08;;;;;;;11.13;3.73;;;5.20;99.90;;;;;;4957315;28;20762;-66
2021/12/27 06:42:35;;;;;;;5.90;4.40;;;5.20;99.90;;;;;;4963208;28;20439;-67
2021/12/27 06:45:02;;;;;;;5.10;4.60;;;5.30;99.90;;;;;;4979625;28;20495;-67
2021/12/27 06:47:29;;;;;;;5.20;3.80;;;5.40;99.90;;;;;;4967006;28;20461;-68
2021/12/27 06:49:56;;;;;;;10.80;3.97;;;5.20;99.90;;;;;;4985917;28;20439;-67
2021/12/27 06:52:25;;;;;;;7.47;3.47;;;5.10;99.90;;;;;;4971490;28;20866;-68
2021/12/27 06:54:52;;;;;;;6.53;3.60;;;5.00;99.90;;;;;;4975936;28;21070;-68
2021/12/27 06:57:21;;;;;;;8.43;4.30;;;4.90;99.90;;;;;;4971342;28;20444;-67
2021/12/27 06:59:48;;;;;;;7.63;4.27;;;4.90;99.90;;;;;;4982419;28;20479;-69
2021/12/27 07:02:15;;;;;;;7.70;4.90;;;4.90;99.90;;;;;;4972078;28;20475;-67
2021/12/27 07:04:42;;;;;;;4.83;3.30;;;4.90;99.90;;;;;;4964050;28;20484;-68
2021/12/27 07:07:10;;;;;;;7.90;4.20;;;4.90;99.90;;;;;;4984449;28;21664;-67
2021/12/27 07:09:37;;;;;;;5.80;3.87;;;4.90;99.90;;;;;;4974324;28;20865;-68
2021/12/27 07:12:05;;;;;;;8.27;5.13;;;5.00;99.90;;;;;;4986054;28;20886;-68
2021/12/27 07:14:34;;;;;;;5.13;4.20;;;4.90;99.90;;;;;;4973358;28;20627;-68
2021/12/27 07:17:01;;;;;;;5.87;3.63;;;4.80;99.90;;;;;;4979762;28;20889;-68
2021/12/27 07:19:28;;;;;;;5.17;4.53;;;4.60;99.90;;;;;;4972299;28;24448;-68
2021/12/27 07:21:56;;;;;;;4.60;3.47;;;4.60;99.90;;;;;;4976511;28;25755;-66
2021/12/27 07:24:23;;;;;;;9.97;4.13;;;4.60;99.90;;;;;;4980229;28;20463;-68
2021/12/27 07:26:52;;;;;;;5.37;3.73;;;4.70;99.90;;;;;;4966111;28;20912;-68
2021/12/27 07:29:19;;;;;;;7.10;3.77;;;4.80;99.90;;;;;;4987642;28;21636;-70
2021/12/27 07:31:48;;;;;;;7.13;3.47;;;5.00;99.90;;;;;;4968304;28;20633;-67
2021/12/27 07:34:17;;;;;;;8.63;5.57;;;5.00;99.90;;;;;;4973883;28;22863;-68
2021/12/27 07:36:45;;;;;;;7.40;3.30;;;5.00;99.90;;;;;;4984330;28;20956;-68
2021/12/27 07:39:12;;;;;;;6.10;2.50;;;5.10;99.90;;;;;;4966730;28;20450;-67
2021/12/27 07:41:40;;;;;;;2.77;2.57;;;5.10;99.90;;;;;;4991926;28;20435;-68
2021/12/27 07:44:07;;;;;;;4.70;3.37;;;5.00;99.90;;;;;;4989246;28;20580;-68
2021/12/27 07:46:35;;;;;;;11.10;5.60;;;4.90;99.90;;;;;;4980053;28;20443;-68
2021/12/27 07:49:04;;;;;;;9.87;5.13;;;5.00;99.90;;;;;;4993933;28;21257;-68
2021/12/27 07:51:31;;;;;;;8.80;4.93;;;5.00;99.90;;;;;;4975419;28;20453;-68
2021/12/27 07:53:58;;;;;;;5.67;3.50;;;5.10;99.90;;;;;;4986249;28;20642;-68
2021/12/27 07:56:25;;;;;;;11.10;4.07;;;5.20;99.90;;;;;;4988282;28;20581;-67
2021/12/27 07:58:52;;;;;;;4.53;3.00;;;5.30;99.90;;;;;;4968822;28;20431;-68
2021/12/27 08:01:19;;;;;;;4.07;3.73;;;5.30;99.90;;;;;;4982977;28;20505;-68
2021/12/27 08:03:47;;;;;;;3.70;2.70;;;5.30;99.90;;;;;;4984790;28;21062;-68
2021/12/27 08:06:17;;;;;;;9.43;4.57;;;5.20;99.90;;;;;;4974688;28;20929;-68
2021/12/27 08:08:44;;;;;;;9.70;5.07;;;5.30;99.90;;;;;;4992275;28;20438;-69
2021/12/27 08:11:11;;;;;;;6.70;3.70;;;5.30;99.90;;;;;;4991036;28;20518;-68
2021/12/27 08:13:42;;;;;;;6.77;4.37;;;5.40;99.90;;;;;;4968160;28;20641;-68
2021/12/27 08:16:09;;;;;;;6.63;3.50;;;5.50;99.90;;;;;;4986229;28;20442;-69
2021/12/27 08:18:36;;;;;;;9.20;3.87;;;5.60;99.90;;;;;;4978607;28;20489;-68
2021/12/27 08:21:04;;;;;;;10.60;4.97;;;5.60;99.90;;;;;;4972673;28;20456;-68
2021/12/27 08:23:32;;;;;;;11.97;5.10;;;5.50;99.90;;;;;;4979183;28;21586;-68
2021/12/27 08:25:59;;;;;;;6.27;4.63;;;5.60;99.90;;;;;;4975166;28;20442;-68
2021/12/27 08:28:27;;;;;;;8.73;5.57;;;5.60;99.90;;;;;;4978008;28;21087;-67
2021/12/27 08:30:54;;;;;;;5.30;4.47;;;5.60;99.90;;;;;;4964413;28;20436;-67
2021/12/27 08:33:21;;;;;;;7.60;4.73;;;5.70;99.90;;;;;;4973052;28;21129;-68
2021/12/27 08:35:48;;;;;;;8.70;5.57;;;5.80;99.90;;;;;;4958449;28;20458;-67
2021/12/27 08:38:18;;;;;;;10.20;5.07;;;5.90;99.90;;;;;;4946140;28;20439;-70
2021/12/27 08:40:46;;;;;;;6.40;4.17;;;5.90;99.90;;;;;;4964677;28;20465;-66
2021/12/27 08:43:13;;;;;;;5.10;3.57;;;5.90;99.90;;;;;;4966637;28;20456;-66
2021/12/27 08:45:40;;;;;;;5.23;3.57;;;5.90;99.90;;;;;;4973424;28;20507;-67
2021/12/27 08:48:07;;;;;;;6.33;4.80;;;5.90;99.90;;;;;;4973260;28;20605;-66
2021/12/27 08:50:37;;;;;;;4.73;4.00;;;5.90;99.90;;;;;;4972525;28;20890;-66
2021/12/27 08:53:05;;;;;;;5.07;4.07;;;6.00;99.90;;;;;;4972748;28;20465;-66
2021/12/27 08:55:32;;;;;;;4.20;3.80;;;6.00;99.90;;;;;;4961520;28;20460;-66
2021/12/27 08:58:01;;;;;;;6.47;4.60;;;6.10;99.90;;;;;;4947074;28;20461;-68
2021/12/27 09:00:28;;;;;;;6.20;4.17;;;6.30;99.90;;;;;;4977387;28;20446;-66
2021/12/27 09:02:55;;;;;;;5.23;3.10;;;6.30;99.90;;;;;;4973109;28;20434;-67
2021/12/27 09:05:23;;;;;;;11.10;5.40;;;6.50;99.90;;;;;;4962871;28;20483;-67
2021/12/27 09:07:50;;;;;;;8.67;5.47;;;6.60;99.90;;;;;;4968594;28;20435;-66
2021/12/27 09:10:17;;;;;;;12.33;6.27;;;6.60;99.90;;;;;;4973734;28;20464;-66
2021/12/27 09:12:46;;;;;;;6.30;5.57;;;6.60;99.90;;;;;;4972154;28;21799;-67
2021/12/27 09:15:15;;;;;;;5.77;4.33;;;6.90;99.90;;;;;;4976619;28;20469;-66
2021/12/27 09:17:42;;;;;;;7.53;5.20;;;7.80;99.90;;;;;;4980078;28;20829;-66
2021/12/27 09:20:11;;;;;;;4.03;3.63;;;9.10;99.90;;;;;;4975947;28;20861;-68
2021/12/27 09:22:38;;;;;;;3.50;2.97;;;10.20;99.90;;;;;;4957673;28;20764;-64
2021/12/27 09:25:05;;;;;;;6.10;4.00;;;10.60;99.90;;;;;;4964537;28;20558;-68
2021/12/27 09:27:32;;;;;;;4.23;2.70;;;10.00;99.90;;;;;;4981563;28;20959;-67
2021/12/27 09:29:59;;;;;;;2.77;2.10;;;9.50;99.90;;;;;;4988455;28;20562;-65
2021/12/27 09:32:28;;;;;;;5.37;3.63;;;9.20;99.90;;;;;;4964958;28;20464;-67
2021/12/27 09:34:55;;;;;;;5.43;2.70;;;8.90;99.90;;;;;;4968642;28;20571;-66
2021/12/27 09:37:22;;;;;;;5.50;3.40;;;8.70;99.90;;;;;;4969043;28;20715;-68
2021/12/27 09:39:53;;;;;;;4.10;3.20;;;8.40;99.90;;;;;;4974289;28;20591;-67
2021/12/27 09:42:22;;;;;;;4.70;2.90;;;8.40;99.90;;;;;;4977423;28;21751;-67
2021/12/27 09:44:49;;;;;;;5.17;3.80;;;8.40;99.90;;;;;;4984009;28;21263;-66
2021/12/27 09:47:16;;;;;;;6.63;3.57;;;8.30;99.90;;;;;;4982328;28;20555;-67
2021/12/27 09:49:46;;;;;;;3.20;2.90;;;8.20;99.90;;;;;;4981294;28;20542;-67
2021/12/27 09:52:13;;;;;;;6.13;3.67;;;8.70;99.90;;;;;;4982573;28;20511;-67
2021/12/27 09:54:40;;;;;;;4.60;2.83;;;9.50;99.90;;;;;;4984906;28;20481;-68
2021/12/27 09:57:08;;;;;;;3.30;3.00;;;10.30;99.90;;;;;;4976107;28;20545;-68
2021/12/27 09:59:35;;;;;;;5.23;3.63;;;10.50;99.90;;;;;;4984665;28;20436;-68
2021/12/27 10:02:02;;;;;;;8.40;3.27;;;10.50;99.90;;;;;;4990275;28;20464;-67
2021/12/27 10:04:29;;;;;;;4.47;2.63;;;10.40;99.90;;;;;;4985917;28;21310;-67
2021/12/27 10:06:57;;;;;;;2.67;2.07;;;10.10;99.90;;;;;;4984189;28;20465;-68
2021/12/27 10:09:24;;;;;;;3.90;3.00;;;10.00;99.90;;;;;;4990566;28;22782;-68
2021/12/27 10:11:55;;;;;;;4.50;3.07;;;10.00;99.90;;;;;;4982053;28;20953;-67
2021/12/27 10:14:24;;;;;;;3.80;2.83;;;10.00;99.90;;;;;;4989242;28;20623;-66
2021/12/27 10:16:55;;;;;;;3.40;2.37;;;9.90;99.90;;;;;;4980757;28;20965;-67
2021/12/27 10:19:23;;;;;;;3.10;2.43;;;9.80;99.90;;;;;;4982734;28;20467;-66
2021/12/27 10:21:52;;;;;;;2.43;1.70;;;9.60;99.90;;;;;;4987221;28;20522;-66
2021/12/27 10:24:27;;;;;;;4.50;2.13;;;9.50;99.90;;;;;;4976195;28;20539;-66
2021/12/27 10:26:55;;;;;;;1.90;1.40;;;9.30;99.90;;;;;;4983146;28;20482;-66
2021/12/27 10:29:25;;;;;;;2.10;1.90;;;9.10;99.90;;;;;;4969690;28;20521;-66
2021/12/27 10:31:58;;;;;;;2.70;1.60;;;9.20;99.90;;;;;;4993531;28;21015;-67
2021/12/27 10:34:28;;;;;;;2.90;2.70;;;9.40;99.90;;;;;;4984769;28;20485;-67
2021/12/27 10:37:05;;;;;;;2.57;2.17;;;9.60;99.90;;;;;;4959415;28;21429;-66
2021/12/27 10:39:44;;;;;;;2.37;2.10;;;9.70;99.90;;;;;;4993086;28;20466;-66
2021/12/27 10:42:13;;;;;;;1.97;1.87;;;9.90;99.90;;;;;;4989669;28;20456;-67
2021/12/27 10:44:41;;;;;;;1.97;1.30;;;9.90;99.90;;;;;;4987046;28;20835;-68
2021/12/27 10:47:35;;;;;;;21.30;10.07;;;9.90;99.90;;;;;;4963856;28;20559;-67
2021/12/27 10:50:06;;;;;;;2.10;1.50;;;9.70;99.90;;;;;;4984672;28;21021;-67
2021/12/27 10:52:45;;;;;;;2.10;1.67;;;10.10;99.90;;;;;;4995158;28;20516;-67
2021/12/27 10:55:15;;;;;;;3.90;2.00;;;10.00;99.90;;;;;;4982317;28;20534;-67
2021/12/27 10:57:42;;;;;;;3.60;1.67;;;9.70;99.90;;;;;;4985128;28;21810;-67
2021/12/27 11:00:31;;;;;;;2.30;1.60;;;9.70;99.90;;;;;;4974404;28;20468;-67
2021/12/27 11:03:02;;;;;;;2.20;1.67;;;9.60;99.90;;;;;;4980790;28;20568;-66
2021/12/27 11:05:31;;;;;;;2.77;1.73;;;9.80;99.90;;;;;;4984356;28;20491;-67
2021/12/27 11:08:02;;;;;;;6.13;1.70;;;9.80;99.90;;;;;;4978019;28;20603;-69
2021/12/27 11:10:32;;;;;;;2.60;1.40;;;9.70;99.90;;;;;;4983114;28;20513;-66
2021/12/27 11:13:00;;;;;;;3.23;1.77;;;9.50;99.90;;;;;;4979985;28;20466;-68
2021/12/27 11:15:31;;;;;;;3.10;1.70;;;9.50;99.90;;;;;;4979027;28;20491;-66
2021/12/27 11:17:59;;;;;;;2.30;1.90;;;9.70;99.90;;;;;;4984745;28;20471;-67
2021/12/27 11:20:27;;;;;;;1.50;1.10;;;9.70;99.90;;;;;;4994201;28;20535;-67
2021/12/27 11:22:58;;;;;;;1.97;1.50;;;9.60;99.90;;;;;;4977929;28;20560;-66
2021/12/27 11:25:33;;;;;;;3.73;2.03;;;9.50;99.90;;;;;;4968433;28;20488;-67
2021/12/27 11:28:01;;;;;;;3.13;1.40;;;9.70;99.90;;;;;;4965662;28;20541;-66
2021/12/27 11:30:30;;;;;;;4.40;1.43;;;9.80;99.90;;;;;;4971910;28;20501;-67
2021/12/27 11:33:09;;;;;;;1.60;1.50;;;9.90;99.90;;;;;;4981097;28;20540;-66
2021/12/27 11:35:38;;;;;;;3.20;1.70;;;10.10;99.90;;;;;;4970546;28;20453;-66
2021/12/27 11:38:06;;;;;;;2.40;1.80;;;10.10;99.90;;;;;;4984025;28;20694;-67
2021/12/27 11:40:47;;;;;;;2.73;1.40;;;9.90;99.90;;;;;;4988580;28;22229;-67
2021/12/27 11:43:17;;;;;;;2.40;1.70;;;10.20;99.90;;;;;;4984584;28;20799;-65
2021/12/27 11:45:47;;;;;;;10.13;4.00;;;10.50;99.90;;;;;;4952921;28;20485;-68
2021/12/27 11:48:16;;;;;;;1.93;1.73;;;10.70;99.90;;;;;;5001998;28;20464;-67
2021/12/27 11:51:07;;;;;;;3.37;2.73;;;10.60;99.90;;;;;;4993286;28;20591;-67
2021/12/27 11:53:36;;;;;;;3.97;2.47;;;10.90;99.90;;;;;;4976979;28;20496;-67
2021/12/27 11:56:11;;;;;;;1.77;1.30;;;11.10;99.90;;;;;;4965487;28;21079;-65
2021/12/27 11:58:39;;;;;;;2.87;1.90;;;11.30;99.90;;;;;;4982867;28;20625;-67
2021/12/27 12:01:33;;;;;;;1.93;1.47;;;11.30;99.90;;;;;;4975034;28;20553;-67
2021/12/27 12:04:00;;;;;;;2.50;1.83;;;10.90;99.90;;;;;;4975328;28;24445;-67
2021/12/27 12:06:40;;;;;;;2.37;2.17;;;10.50;99.90;;;;;;4958254;28;20463;-67
2021/12/27 12:09:12;;;;;;;2.60;1.77;;;10.30;99.90;;;;;;4974624;28;20886;-67
2021/12/27 12:11:41;;;;;;;3.70;2.00;;;10.10;99.90;;;;;;4966318;28;20649;-66
2021/12/27 12:14:28;;;;;;;2.13;1.80;;;10.00;99.90;;;;;;4969561;28;20561;-65
2021/12/27 12:16:56;;;;;;;3.27;1.97;;;9.90;99.90;;;;;;4982986;28;20575;-67
2021/12/27 12:19:38;;;;;;;2.83;1.60;;;9.90;99.90;;;;;;4964751;28;20475;-67
2021/12/27 12:22:06;;;;;;;1.87;1.47;;;10.00;99.90;;;;;;4977659;28;20460;-67
2021/12/27 12:24:34;;;;;;;2.60;2.03;;;10.10;99.90;;;;;;4964041;28;20682;-67
2021/12/27 12:27:04;;;;;;;1.73;1.43;;;10.20;99.90;;;;;;4969908;28;20505;-67
2021/12/27 12:29:39;;;;;;;2.30;2.10;;;10.50;99.90;;;;;;4994588;28;20475;-66
2021/12/27 12:32:08;;;;;;;2.43;1.90;;;10.80;99.90;;;;;;4988420;28;20967;-66
2021/12/27 12:34:36;;;;;;;2.77;1.70;;;10.80;99.90;;;;;;4983214;28;20479;-68
2021/12/27 12:37:06;;;;;;;2.07;1.87;;;10.90;99.90;;;;;;4981365;28;20463;-69
2021/12/27 12:39:38;;;;;;;2.30;2.10;;;11.00;99.90;;;;;;4984551;28;22296;-68
2021/12/27 12:42:08;;;;;;;2.03;1.47;;;11.50;99.90;;;;;;4971877;28;20597;-68
2021/12/27 12:44:47;;;;;;;2.50;1.50;;;11.90;99.90;;;;;;4983933;28;21484;-68
2021/12/27 12:47:14;;;;;;;2.63;2.43;;;12.20;99.90;;;;;;4988853;28;20422;-68
2021/12/27 12:49:41;;;;;;;1.50;1.40;;;12.40;99.90;;;;;;4964562;28;20629;-68
2021/12/27 12:52:09;;;;;;;3.50;1.60;;;12.70;99.90;;;;;;4956140;28;20620;-68
2021/12/27 12:54:39;;;;;;;1.67;1.30;;;12.70;99.90;;;;;;4965121;28;20476;-68
2021/12/27 12:57:09;;;;;;;2.57;1.47;;;12.90;99.90;;;;;;4960444;28;20472;-67
2021/12/27 12:59:40;;;;;;;1.73;1.63;;;12.60;99.90;;;;;;4972075;28;20951;-68
2021/12/27 13:02:09;;;;;;;2.07;1.40;;;12.30;99.90;;;;;;4977757;28;20667;-68
2021/12/27 13:04:41;;;;;;;1.20;1.10;;;11.70;99.90;;;;;;4980439;28;20571;-68